Latest Weather Observations for Ernabella/Pukatja

IDD60801

Issued at 11:31 pm CST Wednesday 1 April 2015 (issued every 30 minutes, with the page automatically refreshed every 10 minutes)

About weather observations | Map of weather stations | Latest weather observations for NT | Other Formats
Station Details ID: 016097 Name: PUKATJA Lat: -26.26 Lon: 132.18 Height: 703.2 m
Data from the previous 72 hours. | See also: Recent months at Ernabella/Pukatja
Date/Time
CST
Temp
°C
App
Temp
°C
Dew
Point
Rel
Hum
%
Delta-T
°C
Wind Press
QNH
hPa
Press
MSL
hPa
Rain
since 9 am
mm
Dir
 
Spd
km/h
Gust
km/h
Spd
kts
Gust
kts
01/11:30pm 23.0 18.1 12.6 52 6.1 SSE 30 41 16 22 1020.3 - 0.0
01/11:00pm 23.3 18.3 12.3 50 6.4 SSE 30 41 16 22 1020.5 1017.3 0.0
01/10:30pm 23.6 20.4 12.0 48 6.8 SSE 20 35 11 19 1020.7 - 0.0
01/10:00pm 24.0 16.6 11.3 45 7.3 S 41 52 22 28 1020.6 - 0.0
01/09:52pm 24.7 16.6 10.2 40 8.3 S 43 52 23 28 1020.7 - 0.0
01/09:30pm 26.8 21.1 2.7 21 12.2 SE 22 33 12 18 1020.4 - 0.0
01/09:00pm 26.9 21.6 2.1 20 12.4 SSE 19 32 10 17 1020.2 - 0.0
01/08:30pm 27.6 22.5 -2.3 14 13.9 ESE 15 19 8 10 1019.6 - 0.0
01/08:00pm 27.8 23.1 -2.1 14 14.0 ESE 13 17 7 9 1019.2 1016.0 0.0
01/07:30pm 28.6 23.0 -2.5 13 14.6 ESE 17 22 9 12 1018.8 - 0.0
01/07:00pm 29.0 23.5 -2.2 13 14.7 SE 17 24 9 13 1018.5 - 0.0
01/06:30pm 29.6 24.3 -0.7 14 14.7 SE 17 24 9 13 1018.1 - 0.0
01/06:00pm 30.1 24.9 -2.4 12 15.4 ESE 15 24 8 13 1018.0 - 0.0
01/05:30pm 30.5 25.4 -2.1 12 15.6 SE 15 20 8 11 1017.7 - 0.0
01/05:00pm 31.1 25.1 -1.6 12 15.8 ESE 20 30 11 16 1017.3 1014.1 0.0
01/04:30pm 31.3 25.3 -1.5 12 15.9 ESE 20 32 11 17 1017.2 - 0.0
01/04:00pm 31.5 26.9 -1.3 12 16.0 ESE 13 17 7 9 1017.2 - 0.0
01/03:30pm 31.0 26.3 -1.7 12 15.8 SSE 13 20 7 11 1017.3 - 0.0
01/03:00pm 31.1 26.8 -1.6 12 15.8 ENE 11 24 6 13 1017.4 - 0.0
01/02:30pm 31.2 26.8 -2.7 11 16.1 E 11 19 6 10 1017.5 - 0.0
01/02:00pm 31.2 26.8 -2.7 11 16.1 SSE 11 20 6 11 1017.9 1014.7 0.0
01/01:30pm 30.7 24.8 -1.9 12 15.7 ENE 19 24 10 13 1018.3 - 0.0
01/01:00pm 32.2 26.7 -2.0 11 16.5 E 17 26 9 14 1018.9 - 0.0
01/12:30pm 29.6 23.7 -0.7 14 14.7 ENE 20 28 11 15 1019.2 - 0.0
01/12:00pm 29.9 25.0 -0.5 14 14.9 ESE 15 30 8 16 1019.6 - 0.0
01/11:30am 30.1 24.8 -0.3 14 14.9 E 17 26 9 14 1019.9 - 0.0
01/11:00am 29.0 24.8 1.5 17 13.8 E 13 20 7 11 1020.3 1017.1 0.0
01/10:30am 27.9 24.6 2.2 19 13.0 NE 9 15 5 8 1020.7 - 0.0
01/10:00am 27.0 23.5 3.5 22 12.1 N 11 17 6 9 1020.9 - 0.0
01/09:30am 26.7 22.4 3.2 22 12.0 NE 15 20 8 11 1020.9 - 0.0
01/09:00am 25.7 21.8 3.6 24 11.3 NE 13 20 7 11 1020.8 - 0.0
01/08:30am 23.8 21.2 3.2 26 10.3 NNE 6 9 3 5 1020.7 - 0.0
01/08:00am 22.5 21.0 3.1 28 9.6 CALM 0 0 0 0 1020.5 1017.3 0.0
01/07:58am 21.9 20.4 3.1 29 9.3 CALM 0 0 0 0 1020.5 - 0.0
01/07:30am 16.8 13.7 1.3 35 7.1 E 7 9 4 5 1020.3 - 0.0
01/07:00am 15.1 12.1 0.9 38 6.4 E 6 7 3 4 1020.4 - 0.0
01/06:30am 16.5 13.0 1.0 35 7.1 E 9 11 5 6 1020.1 - 0.0
01/06:00am 16.7 13.2 1.2 35 7.1 E 9 11 5 6 1019.8 - 0.0
01/05:30am 14.8 11.5 -0.1 36 6.5 E 7 9 4 5 1019.6 - 0.0
01/05:00am 16.4 13.0 -0.3 32 7.4 E 7 9 4 5 1019.3 1016.1 0.0
01/04:30am 17.8 14.4 1.7 34 7.5 E 9 9 5 5 1019.3 - 0.0
01/04:00am 15.9 12.3 0.9 36 6.8 E 9 11 5 6 1019.1 - 0.0
01/03:30am 18.4 14.9 1.4 32 7.9 E 9 11 5 6 1019.3 - 0.0
01/03:00am 18.1 15.2 1.2 32 7.8 E 6 7 3 4 1019.4 - 0.0
01/02:30am 17.4 14.1 0.1 31 7.8 E 7 7 4 4 1019.7 - 0.0
01/02:00am 19.4 16.4 1.9 31 8.3 ESE 7 9 4 5 1020.2 1017.0 0.0
01/01:30am 20.2 16.8 1.6 29 8.8 E 9 11 5 6 1020.4 - 0.0
01/01:00am 20.3 16.8 1.2 28 9.0 E 9 11 5 6 1020.8 - 0.0
01/12:30am 20.5 16.6 1.4 28 9.0 E 11 13 6 7 1020.8 - 0.0
01/12:00am 20.8 17.3 1.1 27 9.3 E 9 11 5 6 1021.1 - 0.0
 
Date/Time
CST
Temp
°C
App
Temp
°C
Dew
Point
Rel
Hum
%
Delta-T
°C
Wind Press
QNH
hPa
Press
MSL
hPa
Rain
since 9 am
mm
Dir
 
Spd
km/h
Gust
km/h
Spd
kts
Gust
kts
31/11:30pm 20.6 17.4 1.0 27 9.2 E 7 9 4 5 1021.1 - 0.0
31/11:00pm 20.3 17.3 0.7 27 9.1 ENE 6 6 3 3 1021.3 1018.2 0.0
31/10:30pm 21.7 18.5 0.8 25 9.9 E 7 9 4 5 1021.3 - 0.0
31/10:00pm 21.0 17.8 0.8 26 9.5 NE 7 9 4 5 1021.3 - 0.0
31/09:30pm 22.2 18.6 0.7 24 10.2 E 9 9 5 5 1021.2 - 0.0
31/09:00pm 21.7 17.7 0.3 24 10.0 ENE 11 13 6 7 1021.0 - 0.0
31/08:30pm 23.4 19.8 0.5 22 10.9 E 9 11 5 6 1020.9 - 0.0
31/08:00pm 23.6 19.5 0.0 21 11.1 E 11 11 6 6 1020.7 1016.5 0.0
31/07:30pm 24.4 20.7 0.0 20 11.6 ENE 9 13 5 7 1020.4 - 0.0
31/07:00pm 26.5 22.0 -0.5 17 12.9 ENE 13 15 7 8 1020.1 - 0.0
31/06:30pm 28.2 23.7 0.0 16 13.8 ENE 13 19 7 10 1019.8 - 0.0
31/06:00pm 29.5 24.6 -0.8 14 14.7 E 15 20 8 11 1019.7 - 0.0
31/05:30pm 30.2 24.4 -1.2 13 15.2 ENE 19 26 10 14 1019.4 - 0.0
31/05:00pm 30.2 24.4 -1.2 13 15.2 E 19 30 10 16 1019.4 1015.2 0.0
31/04:30pm 30.2 24.8 -1.2 13 15.2 SE 17 26 9 14 1019.3 - 0.0
31/04:00pm 30.8 25.9 -0.8 13 15.5 ESE 15 28 8 15 1019.3 - 0.0
31/03:30pm 30.9 26.0 -0.7 13 15.5 ENE 15 24 8 13 1019.3 - 0.0
31/03:00pm 30.1 25.6 -0.3 14 14.9 E 13 32 7 17 1019.4 - 0.0
31/02:30pm 30.5 24.1 1.0 15 14.9 E 24 33 13 18 1019.7 - 0.0
31/02:00pm 29.6 24.1 2.0 17 14.0 ESE 20 32 11 17 1020.1 1015.8 0.0
31/01:30pm 30.2 25.8 2.5 17 14.3 NE 15 26 8 14 1020.7 - 0.0
31/01:00pm 30.3 25.3 3.4 18 14.1 ENE 19 32 10 17 1021.3 - 0.0
31/12:30pm 29.0 23.9 3.1 19 13.4 E 19 26 10 14 1022.0 - 0.0
31/12:00pm 28.2 23.5 3.1 20 12.9 NE 17 26 9 14 1022.6 - 0.0
31/11:30am 26.8 21.7 3.3 22 12.0 E 19 28 10 15 1023.2 - 0.0
31/11:00am 27.4 22.4 3.8 22 12.2 E 19 28 10 15 1023.5 1019.3 0.0
31/10:30am 26.0 20.9 3.9 24 11.4 NE 20 30 11 16 1023.8 - 0.0
31/10:00am 25.2 19.8 4.3 26 10.8 NE 22 30 12 16 1024.0 - 0.0
31/09:30am 24.3 18.9 4.6 28 10.2 ENE 22 32 12 17 1024.4 - 0.0
31/09:00am 23.1 18.1 4.6 30 9.5 ENE 20 28 11 15 1024.6 - 0.0
31/08:30am 21.2 16.5 5.1 35 8.2 ENE 19 26 10 14 1024.6 - 0.0
31/08:00am 20.1 16.5 5.0 37 7.6 ENE 13 17 7 9 1024.2 1020.1 0.0
31/07:30am 18.6 15.4 5.1 41 6.8 ENE 11 13 6 7 1023.9 - 0.0
31/07:00am 16.4 13.0 4.1 44 6.0 ENE 11 13 6 7 1023.7 - 0.0
31/06:30am 17.8 14.1 4.4 41 6.6 E 13 17 7 9 1023.4 - 0.0
31/06:00am 18.1 14.1 4.7 41 6.7 E 15 19 8 10 1022.9 - 0.0
31/05:30am 17.7 14.0 4.3 41 6.6 E 13 15 7 8 1022.7 - 0.0
31/05:00am 18.1 14.3 3.9 39 6.9 E 13 15 7 8 1022.5 1018.3 0.0
31/04:30am 18.5 15.2 4.3 39 7.0 E 11 15 6 8 1022.5 - 0.0
31/04:00am 18.1 14.3 3.9 39 6.9 E 13 15 7 8 1022.3 - 0.0
31/03:30am 17.9 13.8 4.1 40 6.8 E 15 17 8 9 1022.4 - 0.0
31/03:00am 18.4 14.7 4.2 39 7.0 E 13 15 7 8 1022.6 - 0.0
31/02:30am 17.9 14.6 4.5 41 6.6 NE 11 15 6 8 1022.9 - 0.0
31/02:00am 19.0 15.7 4.7 39 7.1 E 11 13 6 7 1023.2 1019.0 0.0
31/01:30am 18.7 15.4 4.8 40 6.9 E 11 11 6 6 1023.5 - 0.0
31/01:00am 18.9 15.7 5.0 40 7.0 E 11 13 6 7 1023.8 - 0.0
31/12:30am 18.7 15.4 4.8 40 6.9 ENE 11 11 6 6 1024.1 - 0.0
31/12:00am 20.1 16.5 5.0 37 7.6 E 13 15 7 8 1024.3 - 0.0
 
Date/Time
CST
Temp
°C
App
Temp
°C
Dew
Point
Rel
Hum
%
Delta-T
°C
Wind Press
QNH
hPa
Press
MSL
hPa
Rain
since 9 am
mm
Dir
 
Spd
km/h
Gust
km/h
Spd
kts
Gust
kts
30/11:30pm 20.6 17.4 5.0 36 7.9 E 11 13 6 7 1024.4 - 0.0
30/11:00pm 20.1 16.9 5.0 37 7.6 E 11 13 6 7 1024.6 1020.4 0.0
30/10:30pm 21.1 17.5 5.1 35 8.2 NE 13 15 7 8 1024.6 - 0.0
30/10:00pm 21.5 17.8 4.6 33 8.6 ENE 13 15 7 8 1024.4 - 0.0
30/09:30pm 21.8 18.5 4.8 33 8.7 ENE 11 13 6 7 1024.4 - 0.0
30/09:00pm 22.3 18.6 4.4 31 9.1 ENE 13 15 7 8 1024.1 - 0.0
30/08:30pm 22.8 19.5 4.3 30 9.4 ENE 11 13 6 7 1023.8 - 0.0
30/08:00pm 23.5 20.6 4.5 29 9.7 E 9 11 5 6 1023.4 1019.2 0.0
30/07:30pm 25.1 21.5 4.8 27 10.6 E 13 15 7 8 1023.1 - 0.0
30/07:00pm 26.9 23.0 5.2 25 11.5 ENE 15 19 8 10 1022.7 - 0.0
30/06:30pm 27.9 23.9 4.9 23 12.2 ENE 15 22 8 12 1022.3 - 0.0
30/06:00pm 28.8 24.4 5.0 22 12.7 ENE 17 26 9 14 1022.1 - 0.0
30/05:30pm 29.9 25.8 4.5 20 13.5 NNE 15 20 8 11 1021.9 - 0.0
30/05:00pm 29.7 26.4 4.4 20 13.4 ESE 11 20 6 11 1021.8 1017.6 0.0
30/04:30pm 30.0 25.8 3.9 19 13.8 E 15 24 8 13 1021.7 - 0.0
30/04:00pm 30.1 25.6 4.0 19 13.8 E 17 26 9 14 1021.7 - 0.0
30/03:30pm 29.6 24.7 4.3 20 13.4 SE 19 28 10 15 1021.8 - 0.0
30/03:00pm 30.7 25.8 5.2 20 13.8 E 20 30 11 16 1021.9 - 0.0
30/02:30pm 30.3 25.5 5.6 21 13.4 E 20 28 11 15 1022.0 - 0.0
30/02:00pm 30.4 26.3 6.3 22 13.2 NE 17 26 9 14 1022.4 1018.2 0.0
30/01:30pm 29.2 24.7 6.0 23 12.6 E 19 30 10 16 1023.1 - 0.0
30/01:00pm 29.3 25.4 7.2 25 12.3 E 17 26 9 14 1023.4 - 0.0
30/12:30pm 28.3 24.0 7.0 26 11.7 NE 19 26 10 14 1023.8 - 0.0
30/12:00pm 27.9 23.2 7.7 28 11.2 ENE 22 32 12 17 1024.3 - 0.0
30/11:30am 26.7 22.7 8.2 31 10.3 ENE 19 32 10 17 1024.8 - 0.0
30/11:00am 26.5 22.7 8.9 33 9.9 ENE 19 28 10 15 1025.2 1021.0 0.0
30/10:30am 25.5 21.7 8.9 35 9.3 ENE 19 24 10 13 1025.4 - 0.0
30/10:00am 24.6 21.0 8.5 36 8.9 NE 17 22 9 12 1025.5 - 0.0
30/09:30am 23.0 19.4 8.3 39 8.0 NE 17 26 9 14 1025.5 - 0.0
30/09:00am 21.3 17.3 6.8 39 7.7 NE 17 24 9 13 1025.4 - 0.0
30/08:30am 19.7 15.1 5.4 39 7.3 ENE 19 24 10 13 1025.2 - 0.0
30/08:00am 18.7 16.7 6.9 46 6.1 E 7 11 4 6 1025.0 1020.8 0.2
30/07:30am 16.9 14.9 7.0 52 5.1 E 7 7 4 4 1024.6 - 0.2
30/07:00am 14.6 12.1 6.4 58 4.1 E 9 11 5 6 1024.1 - 0.2
30/06:30am 14.8 11.9 6.4 57 4.2 E 11 15 6 8 1023.9 - 0.2
30/06:00am 14.9 12.1 7.0 59 4.0 ESE 11 13 6 7 1023.4 - 0.2
30/05:30am 14.5 11.7 7.1 61 3.8 E 11 13 6 7 1023.1 - 0.2
30/05:00am 14.5 11.6 6.6 59 4.0 E 11 13 6 7 1022.7 1018.5 0.2
30/04:30am 15.5 12.7 7.0 57 4.3 E 11 13 6 7 1022.4 - 0.2
30/04:00am 15.2 13.2 7.2 59 4.1 E 7 11 4 6 1022.4 - 0.2
30/03:30am 15.8 13.2 7.6 58 4.2 E 11 13 6 7 1022.3 - 0.2
30/03:00am 16.2 14.0 7.9 58 4.3 E 9 11 5 6 1022.4 - 0.2
30/02:30am 16.3 14.7 8.0 58 4.3 E 6 11 3 6 1022.5 - 0.2
30/02:00am 16.9 14.7 7.8 55 4.7 E 9 11 5 6 1022.7 1018.5 0.2
30/01:30am 16.3 14.0 7.5 56 4.6 E 9 11 5 6 1022.9 - 0.2
30/01:00am 16.8 14.6 7.7 55 4.8 E 9 11 5 6 1023.2 - 0.2
30/12:30am 16.8 14.9 7.7 55 4.8 E 7 9 4 5 1023.5 - 0.2
30/12:00am 17.6 15.5 8.2 54 5.0 NNE 9 13 5 7 1023.7 - 0.2
 
Date/Time
CST
Temp
°C
App
Temp
°C
Dew
Point
Rel
Hum
%
Delta-T
°C
Wind Press
QNH
hPa
Press
MSL
hPa
Rain
since 9 am
mm
Dir
 
Spd
km/h
Gust
km/h
Spd
kts
Gust
kts
29/11:30pm 17.9 16.2 8.5 54 5.0 E 7 9 4 5 1024.0 - 0.2
29/11:00pm 18.0 16.3 8.3 53 5.1 ENE 7 9 4 5 1024.0 1019.8 0.2

Other Formats:

Comma delimited format used in spreadsheet applications
http://www.bom.gov.au/fwo/IDD60801/IDD60801.94474.axf

JavaScript Object Notation format (JSON) in row-major order
http://www.bom.gov.au/fwo/IDD60801/IDD60801.94474.json